Time;durP1;ratioP1;P1;durP2;ratioP2;P2;SDS_P1;SDS_P2;PMS_P1;PMS_P2;Temp;Humidity;BMP_temperature;BMP_pressure;BME280_temperature;BME280_humidity;BME280_pressure;Samples;Min_cycle;Max_cycle;Signal;HPM_P1;HPM_P2
2024/01/15 00:01:00;;;;;;;5.53;2.15;;;-1.50;96.50;;;;;;5049765;28;20222;-74
2024/01/15 00:03:28;;;;;;;6.20;4.70;;;-1.50;96.00;;;;;;5051042;27;20213;-74
2024/01/15 00:05:55;;;;;;;7.03;3.42;;;-1.50;96.00;;;;;;5046020;28;20747;-73
2024/01/15 00:08:22;;;;;;;20.33;3.50;;;-1.50;95.90;;;;;;5045960;28;20606;-74
2024/01/15 00:10:48;;;;;;;3.03;2.83;;;-1.60;95.80;;;;;;5045428;28;20209;-74
2024/01/15 00:13:15;;;;;;;8.00;4.40;;;-1.60;95.90;;;;;;5050768;28;20211;-74
2024/01/15 00:15:42;;;;;;;4.05;2.80;;;-1.60;95.90;;;;;;5044716;28;20207;-74
2024/01/15 00:18:09;;;;;;;6.10;3.17;;;-1.60;96.10;;;;;;5050526;28;20212;-74
2024/01/15 00:20:37;;;;;;;9.82;6.15;;;-1.60;96.20;;;;;;5047438;28;21093;-73
2024/01/15 00:23:04;;;;;;;16.15;5.75;;;-1.60;96.10;;;;;;5043009;28;20570;-74
2024/01/15 00:25:31;;;;;;;3.35;2.47;;;-1.60;96.00;;;;;;5047729;28;20211;-74
2024/01/15 00:27:57;;;;;;;3.75;3.22;;;-1.60;95.90;;;;;;5050209;28;20206;-74
2024/01/15 00:30:24;;;;;;;10.18;5.97;;;-1.60;96.00;;;;;;5066524;27;20217;-73
2024/01/15 00:32:51;;;;;;;3.47;3.03;;;-1.70;96.00;;;;;;5053237;27;20207;-73
2024/01/15 00:35:18;;;;;;;8.63;3.95;;;-1.70;96.10;;;;;;5053530;28;20730;-73
2024/01/15 00:37:46;;;;;;;6.57;2.33;;;-1.70;96.30;;;;;;5052431;28;20207;-73
2024/01/15 00:40:13;;;;;;;4.57;3.50;;;-1.80;96.20;;;;;;5051598;28;20229;-73
2024/01/15 00:42:39;;;;;;;16.75;3.92;;;-1.90;96.40;;;;;;5060801;28;20239;-73
2024/01/15 00:45:07;;;;;;;6.63;4.32;;;-1.90;96.70;;;;;;5053921;28;20212;-73
2024/01/15 00:47:34;;;;;;;6.18;4.13;;;-1.90;96.70;;;;;;5052398;27;20218;-73
2024/01/15 00:50:01;;;;;;;5.53;3.65;;;-1.80;96.70;;;;;;5047097;28;20202;-73
2024/01/15 00:52:28;;;;;;;9.25;4.40;;;-1.90;96.70;;;;;;5057738;28;20298;-73
2024/01/15 00:54:56;;;;;;;4.75;2.47;;;-1.90;96.90;;;;;;5052232;28;20206;-72
2024/01/15 00:57:23;;;;;;;7.95;5.07;;;-2.00;97.00;;;;;;5049653;28;20249;-72
2024/01/15 00:59:49;;;;;;;4.00;2.60;;;-2.00;97.20;;;;;;5042586;28;20209;-73
2024/01/15 01:02:16;;;;;;;2.97;2.78;;;-2.00;97.30;;;;;;5054615;28;20238;-73
2024/01/15 01:04:43;;;;;;;3.75;3.25;;;-2.00;97.40;;;;;;5049254;28;20287;-75
2024/01/15 01:07:10;;;;;;;3.42;2.15;;;-1.90;97.50;;;;;;5053420;28;20212;-73
2024/01/15 01:09:36;;;;;;;7.15;3.63;;;-2.00;97.60;;;;;;5050660;28;20208;-73
2024/01/15 01:12:05;;;;;;;5.90;2.70;;;-1.90;97.80;;;;;;5047683;28;20676;-74
2024/01/15 01:14:33;;;;;;;6.10;3.70;;;-1.90;98.10;;;;;;5050185;27;20208;-73
2024/01/15 01:16:59;;;;;;;4.15;2.75;;;-1.90;97.90;;;;;;5042745;28;20211;-74
2024/01/15 01:19:26;;;;;;;2.58;2.38;;;-1.80;97.90;;;;;;5051089;27;20215;-74
2024/01/15 01:21:53;;;;;;;7.38;3.85;;;-1.80;98.00;;;;;;5046888;28;20226;-73
2024/01/15 01:24:20;;;;;;;4.25;3.42;;;-1.80;97.90;;;;;;5047859;28;20214;-74
2024/01/15 01:26:46;;;;;;;2.72;2.50;;;-1.70;98.00;;;;;;5046845;28;20288;-74
2024/01/15 01:29:15;;;;;;;5.20;3.13;;;-1.70;98.00;;;;;;5052407;27;20653;-73
2024/01/15 01:31:44;;;;;;;9.98;3.58;;;-1.70;98.00;;;;;;5060583;28;20235;-74
2024/01/15 01:34:12;;;;;;;5.45;4.93;;;-1.60;98.00;;;;;;5061292;28;20320;-73
2024/01/15 01:36:39;;;;;;;5.38;3.97;;;-1.60;98.00;;;;;;5061876;27;20543;-74
2024/01/15 01:39:06;;;;;;;4.80;2.47;;;-1.60;97.90;;;;;;5052258;28;20211;-74
2024/01/15 01:41:33;;;;;;;4.55;2.90;;;-1.60;97.90;;;;;;5050173;28;20556;-74
2024/01/15 01:43:59;;;;;;;5.20;2.97;;;-1.60;97.90;;;;;;5058556;28;20203;-74
2024/01/15 01:46:29;;;;;;;5.07;3.20;;;-1.50;97.90;;;;;;5055859;28;20204;-74
2024/01/15 01:48:57;;;;;;;5.03;3.75;;;-1.50;97.90;;;;;;5058836;28;20683;-74
2024/01/15 01:51:25;;;;;;;6.25;3.50;;;-1.50;97.80;;;;;;5052271;28;20233;-74
2024/01/15 01:53:52;;;;;;;6.35;3.15;;;-1.50;98.10;;;;;;5056445;28;20218;-74
2024/01/15 01:56:19;;;;;;;3.88;2.63;;;-1.50;97.90;;;;;;5053297;28;20210;-74
2024/01/15 01:58:47;;;;;;;4.97;2.97;;;-1.50;97.90;;;;;;5051918;28;20206;-74
2024/01/15 02:01:16;;;;;;;3.90;2.35;;;-1.40;98.00;;;;;;5047059;28;20203;-74
2024/01/15 02:03:44;;;;;;;4.53;3.40;;;-1.40;97.80;;;;;;5052649;28;20219;-74
2024/01/15 02:06:11;;;;;;;7.35;4.50;;;-1.40;97.70;;;;;;5051855;28;20212;-75
2024/01/15 02:08:38;;;;;;;4.05;3.08;;;-1.40;97.80;;;;;;5050570;28;20204;-74
2024/01/15 02:11:05;;;;;;;5.15;3.38;;;-1.40;97.80;;;;;;5049018;28;20213;-74
2024/01/15 02:13:35;;;;;;;4.20;2.63;;;-1.50;97.80;;;;;;5053460;28;20207;-74
2024/01/15 02:16:03;;;;;;;7.20;5.78;;;-1.50;97.80;;;;;;5051978;28;20606;-74
2024/01/15 02:18:41;;;;;;;2.13;1.80;;;-1.50;97.90;;;;;;5046807;27;20240;-74
2024/01/15 02:21:10;;;;;;;3.63;3.33;;;-1.50;98.00;;;;;;5052517;28;20554;-74
2024/01/15 02:23:39;;;;;;;5.10;3.17;;;-1.50;97.90;;;;;;5046532;28;20298;-74
2024/01/15 02:26:09;;;;;;;3.17;2.85;;;-1.50;98.00;;;;;;5047828;28;20230;-74
2024/01/15 02:28:37;;;;;;;6.53;3.75;;;-1.60;98.20;;;;;;5047585;28;20201;-74
2024/01/15 02:31:04;;;;;;;5.78;3.42;;;-1.60;98.00;;;;;;5046571;28;20267;-74
2024/01/15 02:33:32;;;;;;;4.65;2.28;;;-1.70;98.10;;;;;;5058460;28;20726;-74
2024/01/15 02:36:00;;;;;;;5.78;3.17;;;-1.70;98.10;;;;;;5062059;28;20292;-74
2024/01/15 02:38:27;;;;;;;12.48;3.33;;;-1.70;98.10;;;;;;5058776;28;20290;-74
2024/01/15 02:40:56;;;;;;;3.65;3.42;;;-1.70;98.20;;;;;;5058478;28;20205;-74
2024/01/15 02:43:23;;;;;;;5.15;3.95;;;-1.70;98.10;;;;;;5060063;28;20219;-74
2024/01/15 02:45:51;;;;;;;8.30;4.30;;;-1.70;98.20;;;;;;5062275;28;20283;-74
2024/01/15 02:48:19;;;;;;;5.95;3.30;;;-1.70;98.50;;;;;;5052804;28;20688;-74
2024/01/15 02:50:47;;;;;;;7.80;2.72;;;-1.70;98.20;;;;;;5056710;28;20224;-74
2024/01/15 02:53:15;;;;;;;3.55;2.15;;;-1.60;98.30;;;;;;5057974;28;20216;-74
2024/01/15 02:55:41;;;;;;;5.28;3.22;;;-1.70;98.10;;;;;;5048456;28;20204;-74
2024/01/15 02:58:10;;;;;;;12.85;2.72;;;-1.70;98.30;;;;;;5052236;28;20452;-74
2024/01/15 03:00:37;;;;;;;3.65;2.95;;;-1.70;98.30;;;;;;5054618;28;20686;-74
2024/01/15 03:03:06;;;;;;;1.88;1.75;;;-1.70;98.30;;;;;;5057689;28;20280;-74
2024/01/15 03:05:34;;;;;;;4.68;3.15;;;-1.70;98.30;;;;;;5053108;28;20201;-74
2024/01/15 03:08:02;;;;;;;5.18;2.75;;;-1.70;98.30;;;;;;5051810;28;20613;-74
2024/01/15 03:10:29;;;;;;;4.75;3.22;;;-1.70;98.30;;;;;;5049434;28;20539;-74
2024/01/15 03:12:56;;;;;;;4.10;2.65;;;-1.80;98.30;;;;;;5049151;28;20193;-74
2024/01/15 03:15:25;;;;;;;4.28;3.20;;;-1.80;98.40;;;;;;5054089;28;20196;-74
2024/01/15 03:17:52;;;;;;;10.30;3.28;;;-1.80;98.70;;;;;;5050933;28;20220;-74
2024/01/15 03:20:19;;;;;;;4.15;3.75;;;-1.80;98.50;;;;;;5052322;28;20260;-74
2024/01/15 03:22:47;;;;;;;2.92;1.27;;;-2.40;98.20;;;;;;5046439;28;20217;-74
2024/01/15 03:25:14;;;;;;;4.13;3.45;;;-1.80;98.50;;;;;;5045830;28;20200;-74
2024/01/15 03:27:41;;;;;;;5.57;3.00;;;-1.80;98.60;;;;;;5043870;28;20599;-74
2024/01/15 03:30:11;;;;;;;7.78;2.97;;;-1.80;98.60;;;;;;5047526;28;20222;-74
2024/01/15 03:32:40;;;;;;;5.05;3.60;;;-1.80;98.70;;;;;;5053656;27;20207;-74
2024/01/15 03:35:08;;;;;;;3.28;3.05;;;-1.80;98.70;;;;;;5057997;28;20210;-74
2024/01/15 03:37:36;;;;;;;9.05;3.50;;;-1.80;98.80;;;;;;5064717;28;20840;-74
2024/01/15 03:40:03;;;;;;;8.00;3.15;;;-1.70;98.80;;;;;;5048592;28;20251;-74
2024/01/15 03:42:30;;;;;;;7.88;4.03;;;-1.70;98.70;;;;;;5055085;28;20220;-74
2024/01/15 03:44:57;;;;;;;3.63;2.65;;;-1.70;98.80;;;;;;5055650;28;20200;-74
2024/01/15 03:47:23;;;;;;;5.60;3.00;;;-1.70;98.70;;;;;;5062847;28;20207;-74
2024/01/15 03:49:52;;;;;;;5.10;3.97;;;-1.70;98.80;;;;;;5056717;28;20209;-74
2024/01/15 03:52:18;;;;;;;6.95;4.68;;;-1.70;98.90;;;;;;5055969;28;20216;-74
2024/01/15 03:54:45;;;;;;;9.88;4.53;;;-1.70;98.80;;;;;;5055880;28;20204;-74
2024/01/15 03:57:12;;;;;;;7.03;3.67;;;-1.70;98.90;;;;;;5060814;28;20216;-74
2024/01/15 03:59:39;;;;;;;4.63;2.50;;;-1.70;99.00;;;;;;5048380;28;20208;-74
2024/01/15 04:02:05;;;;;;;6.93;4.30;;;-1.70;99.00;;;;;;5054570;28;20290;-74
2024/01/15 04:04:32;;;;;;;6.18;2.88;;;-1.60;99.00;;;;;;5057869;28;20678;-74
2024/01/15 04:07:00;;;;;;;5.00;2.78;;;-1.60;99.00;;;;;;5082680;27;20197;-74
2024/01/15 04:09:27;;;;;;;7.60;3.67;;;-1.50;99.00;;;;;;5076345;27;20208;-74
2024/01/15 04:11:54;;;;;;;2.38;1.85;;;-1.50;98.80;;;;;;5083280;27;20204;-74
2024/01/15 04:14:21;;;;;;;3.15;2.88;;;-1.50;98.60;;;;;;5087979;27;20204;-74
2024/01/15 04:16:47;;;;;;;3.40;3.05;;;-1.50;98.80;;;;;;5090281;27;20205;-74
2024/01/15 04:19:14;;;;;;;6.38;4.68;;;-1.40;98.80;;;;;;5087110;27;20214;-74
2024/01/15 04:21:41;;;;;;;4.32;3.90;;;-1.40;98.70;;;;;;5062455;27;20214;-74
2024/01/15 04:24:09;;;;;;;3.58;3.20;;;-1.40;98.70;;;;;;5053127;28;20232;-74
2024/01/15 04:26:36;;;;;;;3.25;2.83;;;-1.30;98.70;;;;;;5048146;28;20738;-74
2024/01/15 04:29:03;;;;;;;2.88;1.33;;;-1.30;98.50;;;;;;5042569;28;20757;-74
2024/01/15 04:31:29;;;;;;;6.43;2.58;;;-1.20;98.60;;;;;;5048300;28;20649;-74
2024/01/15 04:33:56;;;;;;;2.47;2.28;;;-1.20;98.60;;;;;;5056623;27;20205;-74
2024/01/15 04:36:23;;;;;;;4.50;3.03;;;-1.20;98.50;;;;;;5051785;28;20727;-74
2024/01/15 04:38:50;;;;;;;5.15;3.80;;;-1.10;98.50;;;;;;5039460;28;20205;-74
2024/01/15 04:41:18;;;;;;;7.30;4.05;;;-1.10;98.40;;;;;;5054075;27;20239;-74
2024/01/15 04:43:45;;;;;;;3.45;2.75;;;-1.10;98.30;;;;;;5038339;28;20225;-74
2024/01/15 04:46:12;;;;;;;4.85;2.75;;;-1.00;98.40;;;;;;5032662;28;20224;-74
2024/01/15 04:48:38;;;;;;;2.70;2.30;;;-1.00;98.40;;;;;;5038061;28;20311;-74
2024/01/15 04:51:06;;;;;;;8.23;3.47;;;-1.00;98.10;;;;;;5071869;27;20291;-74
2024/01/15 04:53:33;;;;;;;7.47;4.20;;;-1.00;98.00;;;;;;5073839;27;20196;-74
2024/01/15 04:56:00;;;;;;;3.75;2.28;;;-0.90;97.90;;;;;;5046288;28;20295;-74
2024/01/15 04:58:29;;;;;;;3.80;2.65;;;-0.80;97.90;;;;;;5057360;27;20235;-74
2024/01/15 05:00:55;;;;;;;2.97;2.10;;;-0.80;98.10;;;;;;5039827;28;20261;-74
2024/01/15 05:03:22;;;;;;;8.57;3.15;;;-0.80;98.00;;;;;;5053367;28;20228;-74
2024/01/15 05:05:49;;;;;;;3.72;3.28;;;-0.80;97.90;;;;;;5051676;28;20200;-75
2024/01/15 05:08:16;;;;;;;5.53;3.33;;;-0.70;98.00;;;;;;5048815;28;20673;-74
2024/01/15 05:10:43;;;;;;;4.15;2.90;;;-0.70;98.20;;;;;;5047598;28;20681;-74
2024/01/15 05:13:09;;;;;;;4.65;2.88;;;-0.70;97.90;;;;;;5058254;28;20826;-74
2024/01/15 05:15:37;;;;;;;5.35;3.13;;;-0.70;98.00;;;;;;5053933;28;20203;-74
2024/01/15 05:18:05;;;;;;;3.22;1.67;;;-0.70;98.00;;;;;;5052053;28;20298;-74
2024/01/15 05:20:31;;;;;;;8.02;2.50;;;-0.70;98.10;;;;;;5052868;28;20290;-74
2024/01/15 05:22:58;;;;;;;3.58;2.03;;;-0.70;98.10;;;;;;5049553;28;20222;-74
2024/01/15 05:25:25;;;;;;;5.38;3.10;;;-0.70;98.20;;;;;;5055326;28;20263;-74
2024/01/15 05:27:52;;;;;;;3.80;2.15;;;-0.60;98.30;;;;;;5044049;28;20644;-74
2024/01/15 05:30:19;;;;;;;3.88;2.97;;;-0.60;98.20;;;;;;5049377;28;20585;-74
2024/01/15 05:32:47;;;;;;;2.05;1.85;;;-0.60;98.10;;;;;;5039660;28;20197;-75
2024/01/15 05:35:13;;;;;;;7.22;4.60;;;-0.60;98.20;;;;;;5050573;28;20204;-74
2024/01/15 05:37:44;;;;;;;3.80;1.90;;;-0.60;98.30;;;;;;5045513;28;20210;-74
2024/01/15 05:40:12;;;;;;;6.25;4.45;;;-0.50;98.40;;;;;;5046038;28;20219;-73
2024/01/15 05:42:39;;;;;;;9.63;4.30;;;-0.60;98.20;;;;;;5042681;28;20210;-72
2024/01/15 05:45:07;;;;;;;7.82;5.07;;;-0.60;98.20;;;;;;5043600;28;20296;-72
2024/01/15 05:47:34;;;;;;;3.20;2.40;;;-0.60;98.20;;;;;;5042834;28;20214;-72
2024/01/15 05:50:02;;;;;;;4.50;3.67;;;-0.50;98.10;;;;;;5048635;28;20206;-74
2024/01/15 05:52:29;;;;;;;4.88;2.80;;;-0.50;98.00;;;;;;5055724;28;20213;-72
2024/01/15 05:54:56;;;;;;;5.22;2.67;;;-0.40;97.90;;;;;;5055173;28;20192;-72
2024/01/15 05:57:23;;;;;;;7.53;3.38;;;-0.40;97.70;;;;;;5046761;28;20205;-73
2024/01/15 05:59:50;;;;;;;6.85;3.40;;;-0.50;97.80;;;;;;5047821;28;20667;-72
2024/01/15 06:02:17;;;;;;;7.38;4.93;;;-0.50;97.90;;;;;;5046998;28;20289;-74
2024/01/15 06:04:43;;;;;;;3.13;2.25;;;-0.50;98.00;;;;;;5056087;28;20235;-74
2024/01/15 06:07:12;;;;;;;6.30;4.50;;;-0.50;98.00;;;;;;5036641;27;20220;-75
2024/01/15 06:09:39;;;;;;;6.13;3.70;;;-0.50;98.00;;;;;;5039214;28;20557;-75
2024/01/15 06:12:08;;;;;;;5.20;3.47;;;-0.50;98.00;;;;;;5048504;28;20656;-76
2024/01/15 06:14:34;;;;;;;4.18;2.75;;;-0.50;97.90;;;;;;5047253;28;20287;-76
2024/01/15 06:17:01;;;;;;;3.83;2.55;;;-0.60;97.80;;;;;;5052778;28;20193;-76
2024/01/15 06:19:28;;;;;;;5.43;2.78;;;-0.50;98.00;;;;;;5055367;28;20712;-75
2024/01/15 06:21:55;;;;;;;4.78;3.03;;;-0.50;97.80;;;;;;5047691;28;20204;-76
2024/01/15 06:24:23;;;;;;;8.98;3.90;;;-0.50;97.80;;;;;;5047684;28;20311;-76
2024/01/15 06:26:50;;;;;;;11.25;3.67;;;-0.50;97.80;;;;;;5052053;28;20197;-76
2024/01/15 06:29:16;;;;;;;6.43;2.42;;;-0.50;97.80;;;;;;5047681;28;20204;-76
2024/01/15 06:31:43;;;;;;;8.50;4.30;;;-0.50;97.90;;;;;;5047021;28;20196;-74
2024/01/15 06:34:10;;;;;;;8.15;4.72;;;-0.50;98.00;;;;;;5043737;27;22285;-74
2024/01/15 06:36:37;;;;;;;10.90;3.35;;;-0.60;98.00;;;;;;5040965;27;20204;-74
2024/01/15 06:39:04;;;;;;;2.53;2.20;;;-0.60;98.10;;;;;;5038197;27;20216;-74
2024/01/15 06:41:32;;;;;;;4.85;2.70;;;-0.50;98.20;;;;;;5044524;27;20557;-74
2024/01/15 06:43:58;;;;;;;4.70;2.80;;;-0.50;98.00;;;;;;5037325;28;20570;-74
2024/01/15 06:46:25;;;;;;;5.03;3.55;;;-0.60;97.90;;;;;;5034818;28;20655;-74
2024/01/15 06:48:52;;;;;;;2.55;2.35;;;-0.60;98.00;;;;;;5048946;28;20617;-74
2024/01/15 06:51:19;;;;;;;4.45;3.15;;;-0.60;98.30;;;;;;5049101;28;20226;-74
2024/01/15 06:53:46;;;;;;;2.22;2.05;;;-0.50;98.00;;;;;;5049537;28;20210;-75
2024/01/15 06:56:12;;;;;;;4.07;3.55;;;-0.50;97.60;;;;;;5045009;28;20219;-75
2024/01/15 06:58:40;;;;;;;5.75;2.72;;;-0.50;97.60;;;;;;5039274;28;20696;-74
2024/01/15 07:01:07;;;;;;;5.43;3.83;;;-0.50;97.70;;;;;;5052027;28;20287;-75
2024/01/15 07:03:34;;;;;;;4.20;2.90;;;-0.60;97.80;;;;;;5058254;28;20223;-75
2024/01/15 07:06:01;;;;;;;7.88;2.72;;;-0.60;97.80;;;;;;5074775;27;20226;-73
2024/01/15 07:08:28;;;;;;;10.48;4.05;;;-0.50;97.80;;;;;;5041834;28;20287;-73
2024/01/15 07:10:55;;;;;;;5.20;2.90;;;-0.50;97.60;;;;;;5056189;28;20212;-73
2024/01/15 07:13:24;;;;;;;5.30;4.00;;;-0.50;97.40;;;;;;5056839;27;20199;-73
2024/01/15 07:15:52;;;;;;;9.75;3.25;;;-0.40;97.30;;;;;;5048122;28;20201;-73
2024/01/15 07:18:19;;;;;;;3.38;3.00;;;-0.40;97.20;;;;;;5053216;28;20212;-73
2024/01/15 07:20:46;;;;;;;3.67;3.38;;;-0.40;97.20;;;;;;5051945;27;20204;-72
2024/01/15 07:23:13;;;;;;;8.60;3.70;;;-0.30;97.30;;;;;;5053223;28;20212;-72
2024/01/15 07:25:39;;;;;;;6.63;2.72;;;-0.40;97.00;;;;;;5043203;28;20278;-72
2024/01/15 07:28:06;;;;;;;10.38;2.97;;;-0.40;97.10;;;;;;5044207;28;20217;-73
2024/01/15 07:30:33;;;;;;;4.15;3.25;;;-0.40;97.10;;;;;;5035050;28;20654;-73
2024/01/15 07:33:03;;;;;;;3.80;2.88;;;-0.50;97.10;;;;;;5045647;28;20204;-73
2024/01/15 07:35:31;;;;;;;3.15;2.88;;;-0.50;97.20;;;;;;5037633;28;20276;-73
2024/01/15 07:37:57;;;;;;;4.20;3.72;;;-0.50;97.20;;;;;;5039044;28;20670;-73
2024/01/15 07:40:24;;;;;;;3.88;2.80;;;-0.40;97.30;;;;;;5063072;27;20214;-73
2024/01/15 07:42:51;;;;;;;3.20;2.22;;;-0.40;97.00;;;;;;5072477;27;20780;-78
2024/01/15 07:45:18;;;;;;;5.05;3.50;;;-0.40;96.80;;;;;;5056086;27;20266;-75
2024/01/15 07:47:45;;;;;;;3.80;2.63;;;-0.40;96.60;;;;;;5035968;28;20264;-75
2024/01/15 07:50:13;;;;;;;2.95;2.65;;;-0.40;96.70;;;;;;5052748;28;20208;-75
2024/01/15 07:52:41;;;;;;;2.55;2.20;;;-0.40;96.50;;;;;;5060306;27;20205;-75
2024/01/15 07:55:08;;;;;;;3.47;3.08;;;-0.30;96.40;;;;;;5056728;28;20208;-75
2024/01/15 07:57:36;;;;;;;3.47;3.15;;;-0.30;96.20;;;;;;5040043;28;20211;-75
2024/01/15 08:00:04;;;;;;;5.85;2.35;;;-0.40;95.80;;;;;;5046931;28;20239;-75
2024/01/15 08:02:32;;;;;;;3.63;2.97;;;-0.40;95.90;;;;;;5051559;28;20214;-75
2024/01/15 08:04:59;;;;;;;5.57;3.63;;;-0.30;95.80;;;;;;5052399;28;20227;-75
2024/01/15 08:07:27;;;;;;;4.68;2.15;;;-0.30;95.70;;;;;;5046419;27;20672;-75
2024/01/15 08:09:54;;;;;;;3.17;2.65;;;-0.30;95.90;;;;;;5054586;28;20614;-76
2024/01/15 08:12:22;;;;;;;4.07;1.85;;;-0.30;95.50;;;;;;5053649;28;20307;-75
2024/01/15 08:14:48;;;;;;;4.70;1.75;;;-0.30;95.40;;;;;;5042881;28;20197;-76
2024/01/15 08:17:16;;;;;;;3.67;2.67;;;-0.30;95.60;;;;;;5050074;27;20194;-75
2024/01/15 08:19:43;;;;;;;3.45;3.15;;;-0.20;95.60;;;;;;5051602;27;20892;-75
2024/01/15 08:22:10;;;;;;;3.33;3.00;;;-0.20;95.30;;;;;;5051844;28;20215;-76
2024/01/15 08:24:38;;;;;;;2.83;2.33;;;-0.20;95.40;;;;;;5041985;28;20233;-75
2024/01/15 08:27:05;;;;;;;5.18;3.45;;;-0.20;95.10;;;;;;5050816;28;20299;-75
2024/01/15 08:29:34;;;;;;;3.65;3.35;;;-0.20;95.00;;;;;;5048633;27;20199;-75
2024/01/15 08:32:01;;;;;;;2.88;2.47;;;-0.10;95.20;;;;;;5049551;28;20212;-75
2024/01/15 08:34:28;;;;;;;5.75;2.40;;;-0.10;95.10;;;;;;5050957;28;20200;-76
2024/01/15 08:36:57;;;;;;;2.88;2.10;;;0.00;94.90;;;;;;5050541;28;20208;-78
2024/01/15 08:39:24;;;;;;;18.95;2.70;;;-0.10;94.90;;;;;;5045916;27;20847;-75
2024/01/15 08:41:52;;;;;;;2.20;2.00;;;0.00;95.10;;;;;;5038874;28;20612;-75
2024/01/15 08:44:19;;;;;;;2.22;2.05;;;0.00;94.80;;;;;;5042836;27;20311;-75
2024/01/15 08:46:45;;;;;;;3.65;2.63;;;0.10;94.50;;;;;;5028767;28;20291;-75
2024/01/15 08:49:12;;;;;;;3.05;1.70;;;0.00;94.40;;;;;;5031888;27;20211;-75
2024/01/15 08:51:39;;;;;;;4.00;2.58;;;0.10;94.30;;;;;;5056255;28;20215;-75
2024/01/15 08:54:08;;;;;;;7.70;3.13;;;0.10;94.30;;;;;;5052638;28;20287;-76
2024/01/15 08:56:35;;;;;;;5.07;2.45;;;0.20;94.50;;;;;;5052580;27;20235;-76
2024/01/15 08:59:03;;;;;;;1.75;1.65;;;0.20;94.00;;;;;;5052154;28;20209;-76
2024/01/15 09:01:30;;;;;;;1.85;1.75;;;0.20;93.90;;;;;;5055413;28;20207;-75
2024/01/15 09:03:57;;;;;;;3.70;2.83;;;0.30;93.80;;;;;;5050101;28;20210;-75
2024/01/15 09:06:24;;;;;;;5.70;2.30;;;0.30;93.50;;;;;;5059969;27;20295;-76
2024/01/15 09:08:51;;;;;;;3.30;2.28;;;0.30;93.60;;;;;;5053181;28;20232;-75
2024/01/15 09:11:18;;;;;;;4.93;3.10;;;0.40;93.80;;;;;;5052692;27;20210;-75
2024/01/15 09:13:45;;;;;;;2.80;2.35;;;0.40;93.30;;;;;;5044778;28;20283;-76
2024/01/15 09:16:13;;;;;;;6.32;3.78;;;0.40;93.40;;;;;;5053584;28;20260;-76
2024/01/15 09:18:39;;;;;;;4.15;1.70;;;0.50;93.30;;;;;;5050433;27;20215;-75
2024/01/15 09:21:06;;;;;;;6.47;2.03;;;0.50;93.40;;;;;;5052470;28;20578;-76
2024/01/15 09:23:33;;;;;;;3.65;2.10;;;0.50;92.90;;;;;;5054204;28;20302;-75
2024/01/15 09:26:00;;;;;;;3.35;1.75;;;0.60;93.10;;;;;;5053213;28;20307;-75
2024/01/15 09:28:27;;;;;;;4.28;3.30;;;0.50;92.60;;;;;;5039448;28;20200;-75
2024/01/15 09:30:53;;;;;;;3.33;2.60;;;0.60;92.90;;;;;;5035051;28;20212;-75
2024/01/15 09:33:21;;;;;;;6.18;2.70;;;0.70;93.00;;;;;;5037392;28;20335;-75
2024/01/15 09:35:48;;;;;;;1.65;1.23;;;0.70;93.20;;;;;;5032427;27;20204;-75
2024/01/15 09:38:15;;;;;;;3.97;2.40;;;0.70;92.70;;;;;;5041857;28;20218;-75
2024/01/15 09:40:46;;;;;;;1.67;1.23;;;0.70;92.50;;;;;;5046521;28;20203;-75
2024/01/15 09:43:13;;;;;;;2.42;1.95;;;0.80;92.80;;;;;;5038247;27;20355;-75
2024/01/15 09:45:40;;;;;;;0.95;0.95;;;0.80;92.60;;;;;;5035415;27;20302;-75
2024/01/15 09:48:08;;;;;;;1.88;1.10;;;0.70;92.50;;;;;;5040954;28;20481;-75
2024/01/15 09:50:37;;;;;;;4.00;2.47;;;0.80;92.70;;;;;;5037128;28;20215;-75
2024/01/15 09:53:04;;;;;;;2.33;2.15;;;0.70;92.50;;;;;;5047430;28;20211;-75
2024/01/15 09:55:32;;;;;;;3.60;1.67;;;0.80;92.90;;;;;;5042563;28;20219;-75
2024/01/15 09:58:01;;;;;;;3.92;1.70;;;0.80;92.60;;;;;;5054119;28;20210;-75
2024/01/15 10:00:29;;;;;;;2.85;2.35;;;0.80;92.60;;;;;;5042791;28;20610;-76
2024/01/15 10:02:57;;;;;;;2.17;1.23;;;0.80;92.60;;;;;;5042778;28;20314;-75
2024/01/15 10:05:24;;;;;;;4.30;2.72;;;0.80;92.60;;;;;;5032744;28;20312;-75
2024/01/15 10:07:54;;;;;;;6.40;2.83;;;0.90;92.40;;;;;;5047859;28;20211;-74
2024/01/15 10:10:21;;;;;;;2.28;1.90;;;0.90;92.60;;;;;;5046896;28;20615;-75
2024/01/15 10:12:48;;;;;;;1.23;1.13;;;0.90;92.30;;;;;;5047088;28;20268;-74
2024/01/15 10:15:16;;;;;;;6.75;1.92;;;0.80;92.60;;;;;;5058663;27;20231;-75
2024/01/15 10:17:42;;;;;;;3.78;2.28;;;0.90;92.80;;;;;;5044448;27;20284;-75
2024/01/15 10:20:11;;;;;;;2.85;2.00;;;0.90;92.60;;;;;;5051436;28;20217;-75
2024/01/15 10:22:41;;;;;;;1.67;1.17;;;0.80;92.30;;;;;;5051567;27;20210;-74
2024/01/15 10:25:11;;;;;;;3.72;2.30;;;0.80;92.30;;;;;;5046598;27;20224;-75
2024/01/15 10:27:38;;;;;;;3.47;2.15;;;0.80;92.60;;;;;;5044720;28;20728;-75
2024/01/15 10:30:06;;;;;;;2.28;2.17;;;0.90;92.60;;;;;;5047428;28;20208;-74
2024/01/15 10:32:33;;;;;;;2.22;2.08;;;0.90;92.50;;;;;;5047627;28;20198;-74
2024/01/15 10:34:59;;;;;;;4.30;2.20;;;0.90;92.50;;;;;;5043939;27;20197;-74
2024/01/15 10:37:27;;;;;;;3.05;1.67;;;1.00;92.90;;;;;;5051481;28;20207;-75
2024/01/15 10:39:54;;;;;;;6.53;2.45;;;1.00;92.60;;;;;;5052239;27;20264;-74
2024/01/15 10:42:22;;;;;;;2.25;1.83;;;1.00;93.20;;;;;;5043307;28;20300;-74
2024/01/15 10:44:48;;;;;;;1.60;1.10;;;1.00;92.80;;;;;;5043641;28;20228;-74
2024/01/15 10:47:16;;;;;;;3.60;1.92;;;1.00;92.80;;;;;;5042002;28;20689;-74
2024/01/15 10:49:43;;;;;;;2.75;2.10;;;1.10;92.90;;;;;;5046929;27;20626;-75
2024/01/15 10:52:10;;;;;;;3.05;2.35;;;1.00;92.50;;;;;;5053686;28;20210;-75
2024/01/15 10:54:39;;;;;;;3.40;1.80;;;1.00;92.90;;;;;;5052660;28;20213;-75
2024/01/15 10:57:07;;;;;;;1.88;1.55;;;1.00;93.10;;;;;;5059021;28;20715;-75
2024/01/15 10:59:37;;;;;;;8.88;2.22;;;1.00;92.70;;;;;;5057544;27;20231;-75
2024/01/15 11:02:04;;;;;;;3.60;2.65;;;1.00;92.90;;;;;;5106601;27;20225;-74
2024/01/15 11:04:33;;;;;;;2.28;2.15;;;1.00;92.80;;;;;;5061659;28;20290;-75
2024/01/15 11:07:03;;;;;;;2.60;2.40;;;1.20;93.10;;;;;;5052449;28;20657;-75
2024/01/15 11:09:30;;;;;;;9.93;4.85;;;1.10;92.80;;;;;;5048996;27;20251;-76
2024/01/15 11:12:08;;;;;;;4.45;1.85;;;1.20;93.10;;;;;;5050968;28;20205;-74
2024/01/15 11:14:39;;;;;;;2.97;2.15;;;1.20;93.20;;;;;;5050342;28;20677;-74
2024/01/15 11:17:06;;;;;;;5.85;3.70;;;1.20;93.60;;;;;;5047063;28;20314;-76
2024/01/15 11:19:43;;;;;;;2.72;2.50;;;1.10;93.60;;;;;;5058115;28;20215;-71
2024/01/15 11:22:11;;;;;;;2.13;1.92;;;1.20;94.20;;;;;;5046533;28;20683;-72
2024/01/15 11:24:39;;;;;;;2.65;2.42;;;1.30;94.30;;;;;;5068293;27;20197;-74
2024/01/15 11:27:07;;;;;;;8.02;6.38;;;1.30;94.60;;;;;;5059331;27;20219;-71
2024/01/15 11:29:36;;;;;;;3.00;2.80;;;1.30;94.60;;;;;;5072779;27;20213;-72
2024/01/15 11:32:05;;;;;;;3.65;2.95;;;1.40;94.80;;;;;;5055674;27;20208;-73
2024/01/15 11:34:51;;;;;;;1.42;1.33;;;1.30;94.30;;;;;;5047878;27;20222;-70
2024/01/15 11:37:19;;;;;;;5.93;3.42;;;1.30;94.30;;;;;;5045773;27;20200;-72
2024/01/15 11:39:46;;;;;;;1.70;1.60;;;1.20;94.20;;;;;;5038308;28;20201;-71
2024/01/15 11:42:14;;;;;;;3.85;2.22;;;1.20;94.70;;;;;;5035561;28;20269;-72
2024/01/15 11:44:42;;;;;;;5.18;2.95;;;1.30;95.00;;;;;;5033660;28;20196;-71
2024/01/15 11:47:12;;;;;;;4.53;3.35;;;1.20;94.70;;;;;;5036081;28;20235;-72
2024/01/15 11:50:02;;;;;;;4.70;4.28;;;1.10;95.20;;;;;;5039834;27;20269;-72
2024/01/15 11:52:34;;;;;;;3.78;3.35;;;1.10;95.70;;;;;;5042543;27;20557;-72
2024/01/15 11:55:14;;;;;;;3.45;3.15;;;1.20;95.60;;;;;;5037235;28;20213;-71
2024/01/15 11:57:47;;;;;;;3.33;2.78;;;1.10;95.80;;;;;;5040833;28;20207;-75
2024/01/15 12:00:16;;;;;;;2.65;1.95;;;1.10;95.80;;;;;;5043380;27;20212;-72
2024/01/15 12:02:44;;;;;;;2.53;2.33;;;1.00;95.90;;;;;;5059561;28;20212;-74
2024/01/15 12:05:12;;;;;;;2.67;2.47;;;1.00;96.30;;;;;;5049880;27;20239;-73
2024/01/15 12:07:39;;;;;;;1.98;1.88;;;1.10;96.20;;;;;;5054815;28;20203;-72
2024/01/15 12:10:10;;;;;;;5.60;2.97;;;1.00;95.90;;;;;;5053228;28;20268;-73
2024/01/15 12:12:48;;;;;;;4.03;2.05;;;1.00;96.40;;;;;;5041800;28;20564;-73
2024/01/15 12:15:17;;;;;;;2.00;1.35;;;1.00;97.00;;;;;;5042645;28;20334;-73
2024/01/15 12:17:43;;;;;;;6.82;2.70;;;0.90;97.90;;;;;;5047284;27;20295;-72
2024/01/15 12:20:12;;;;;;;3.45;3.03;;;0.80;99.00;;;;;;5083267;27;20207;-72
2024/01/15 12:22:39;;;;;;;3.33;2.38;;;0.80;99.70;;;;;;5044128;28;20232;-72
2024/01/15 12:25:06;;;;;;;2.45;2.35;;;0.70;99.90;;;;;;5052295;28;20755;-72
2024/01/15 12:27:34;;;;;;;2.60;1.60;;;0.70;99.90;;;;;;5064427;27;20709;-72
2024/01/15 12:30:01;;;;;;;3.10;2.60;;;0.60;99.90;;;;;;5044180;28;20646;-72
2024/01/15 12:32:30;;;;;;;2.95;2.75;;;0.60;99.90;;;;;;5046549;28;20283;-72
2024/01/15 12:34:57;;;;;;;5.53;5.03;;;0.50;99.90;;;;;;5037025;27;20237;-72
2024/01/15 12:37:25;;;;;;;3.30;2.25;;;0.30;99.90;;;;;;5044653;28;20265;-72
2024/01/15 12:39:54;;;;;;;3.97;2.45;;;0.30;99.90;;;;;;5037215;28;20212;-72
2024/01/15 12:42:22;;;;;;;2.30;2.10;;;0.30;99.90;;;;;;5042677;28;20661;-72
2024/01/15 12:44:49;;;;;;;2.40;2.20;;;0.30;99.90;;;;;;5033456;28;20283;-72
2024/01/15 12:47:18;;;;;;;4.38;2.53;;;0.30;99.90;;;;;;5045288;28;20227;-72
2024/01/15 12:49:53;;;;;;;5.35;2.30;;;0.40;99.90;;;;;;5051876;27;20204;-72
2024/01/15 12:52:21;;;;;;;2.70;2.33;;;0.30;99.90;;;;;;5043729;27;20226;-72